Time;durP1;ratioP1;P1;durP2;ratioP2;P2;SDS_P1;SDS_P2;PMS_P1;PMS_P2;Temp;Humidity;BMP_temperature;BMP_pressure;BME280_temperature;BME280_humidity;BME280_pressure;Samples;Min_cycle;Max_cycle;Signal;HPM_P1;HPM_P2
2023/07/15 00:01:24;;;;;;;2.70;2.33;;;21.80;54.00;;;;;;5096634;28;20164;-85
2023/07/15 00:03:50;;;;;;;2.10;1.80;;;21.80;54.00;;;;;;5078494;28;20237;-85
2023/07/15 00:06:21;;;;;;;2.35;2.10;;;21.90;54.10;;;;;;5061974;28;20187;-83
2023/07/15 00:08:47;;;;;;;2.55;2.10;;;21.90;54.10;;;;;;5045097;28;20177;-83
2023/07/15 00:11:29;;;;;;;1.83;1.70;;;21.80;54.10;;;;;;5061572;28;20161;-81
2023/07/15 00:13:57;;;;;;;1.98;1.77;;;21.90;54.20;;;;;;5096535;28;20157;-85
2023/07/15 00:16:23;;;;;;;1.98;1.77;;;21.80;54.10;;;;;;5096239;28;20239;-85
2023/07/15 00:18:49;;;;;;;2.03;1.83;;;21.90;54.10;;;;;;5078223;28;20172;-83
2023/07/15 00:21:22;;;;;;;2.28;1.85;;;21.80;54.20;;;;;;5061449;28;20566;-82
2023/07/15 00:23:53;;;;;;;2.08;1.88;;;21.80;54.10;;;;;;5028096;28;20228;-85
2023/07/15 00:26:20;;;;;;;3.20;2.30;;;21.80;54.10;;;;;;5078667;28;20243;-85
2023/07/15 00:28:46;;;;;;;2.70;2.20;;;21.80;54.10;;;;;;5078207;28;20165;-83
2023/07/15 00:31:13;;;;;;;2.05;1.85;;;21.90;54.20;;;;;;5095995;28;20153;-84
2023/07/15 00:33:40;;;;;;;2.00;1.77;;;21.80;54.20;;;;;;5077834;28;20156;-83
2023/07/15 00:36:11;;;;;;;2.00;1.85;;;21.80;54.80;;;;;;5096261;28;20646;-82
2023/07/15 00:38:37;;;;;;;2.78;2.30;;;21.90;54.20;;;;;;5027496;28;20255;-84
2023/07/15 00:41:03;;;;;;;2.38;1.90;;;21.80;54.30;;;;;;5061217;28;20164;-82
2023/07/15 00:44:05;;;;;;;2.28;2.08;;;21.80;54.20;;;;;;5077990;28;20153;-82
2023/07/15 00:47:04;;;;;;;2.10;1.90;;;21.80;54.20;;;;;;5077678;28;20526;-82
2023/07/15 00:49:31;;;;;;;2.33;1.98;;;21.70;54.20;;;;;;5078007;28;20161;-85
2023/07/15 00:52:01;;;;;;;2.20;2.00;;;21.80;54.20;;;;;;5094752;28;20157;-82
2023/07/15 00:54:32;;;;;;;2.30;2.10;;;21.80;54.30;;;;;;5077841;28;20647;-84
2023/07/15 00:57:00;;;;;;;2.30;2.10;;;21.80;54.30;;;;;;5044016;28;20195;-82
2023/07/15 00:59:26;;;;;;;2.35;2.00;;;21.80;54.30;;;;;;5078006;28;20145;-85
2023/07/15 01:01:53;;;;;;;2.13;1.92;;;21.80;54.30;;;;;;5095488;28;20627;-86
2023/07/15 01:04:19;;;;;;;1.95;1.75;;;21.80;54.30;;;;;;5077182;28;20195;-82
2023/07/15 01:06:46;;;;;;;1.85;1.70;;;21.80;54.40;;;;;;5077272;28;20543;-86
2023/07/15 01:09:12;;;;;;;2.40;2.00;;;21.80;54.30;;;;;;5077491;28;20153;-87
2023/07/15 01:11:39;;;;;;;2.00;1.80;;;21.80;54.30;;;;;;5077044;28;20168;-82
2023/07/15 01:14:05;;;;;;;2.35;2.15;;;21.80;54.30;;;;;;5095117;28;20156;-85
2023/07/15 01:16:35;;;;;;;2.13;1.92;;;21.80;54.40;;;;;;5077093;28;20615;-85
2023/07/15 01:19:03;;;;;;;2.20;2.00;;;21.80;54.30;;;;;;5010308;28;20180;-85
2023/07/15 01:21:30;;;;;;;1.98;1.77;;;21.80;54.30;;;;;;5060473;28;20198;-83
2023/07/15 01:23:55;;;;;;;2.25;2.05;;;21.80;54.40;;;;;;5077053;28;20177;-88
2023/07/15 01:26:21;;;;;;;2.05;1.85;;;21.80;54.40;;;;;;5076905;28;20160;-84
2023/07/15 01:28:49;;;;;;;2.60;2.13;;;21.80;54.40;;;;;;5094970;28;20163;-84
2023/07/15 01:31:16;;;;;;;2.20;2.00;;;21.80;54.40;;;;;;5076903;28;20149;-84
2023/07/15 01:33:42;;;;;;;1.70;1.60;;;21.80;54.50;;;;;;5060138;28;20153;-83
2023/07/15 01:36:08;;;;;;;2.45;2.10;;;21.80;54.50;;;;;;5094859;28;20218;-83
2023/07/15 01:38:34;;;;;;;1.70;1.60;;;21.80;54.50;;;;;;5076416;28;20758;-84
2023/07/15 01:41:00;;;;;;;2.78;2.00;;;21.80;54.50;;;;;;5076602;28;20160;-83
2023/07/15 01:43:26;;;;;;;2.97;2.28;;;21.70;54.40;;;;;;5076894;28;20152;-84
2023/07/15 01:45:52;;;;;;;2.30;2.10;;;21.70;54.40;;;;;;5076457;28;20217;-87
2023/07/15 01:48:19;;;;;;;1.92;1.73;;;21.70;54.40;;;;;;5076376;28;20198;-84
2023/07/15 01:50:45;;;;;;;1.90;1.70;;;21.70;54.50;;;;;;5059742;28;20164;-87
2023/07/15 01:53:10;;;;;;;1.98;1.75;;;21.70;54.50;;;;;;5076411;28;20153;-85
2023/07/15 01:55:36;;;;;;;1.90;1.75;;;21.70;54.40;;;;;;5094472;28;20153;-85
2023/07/15 01:58:03;;;;;;;2.10;1.80;;;21.70;54.50;;;;;;5059534;28;20186;-84
2023/07/15 02:00:29;;;;;;;2.30;2.10;;;21.80;54.60;;;;;;5059588;28;20152;-83
2023/07/15 02:02:59;;;;;;;2.38;1.98;;;21.70;54.50;;;;;;5094386;28;20156;-85
2023/07/15 02:05:24;;;;;;;2.20;2.00;;;21.70;54.50;;;;;;5025792;28;20208;-86
2023/07/15 02:07:50;;;;;;;2.15;1.95;;;21.70;54.60;;;;;;5076066;28;20149;-85
2023/07/15 02:10:17;;;;;;;1.80;1.70;;;21.70;54.50;;;;;;5094145;28;20235;-81
2023/07/15 02:12:43;;;;;;;1.90;1.80;;;21.70;54.60;;;;;;5076037;28;20145;-86
2023/07/15 02:15:09;;;;;;;2.17;1.98;;;21.70;54.50;;;;;;5094250;28;20566;-82
2023/07/15 02:17:35;;;;;;;2.10;1.90;;;21.70;54.50;;;;;;5076296;28;20191;-81
2023/07/15 02:20:04;;;;;;;2.10;1.90;;;21.80;54.60;;;;;;5075811;28;20160;-85
2023/07/15 02:22:34;;;;;;;1.88;1.77;;;21.70;54.60;;;;;;5076536;28;20223;-83
2023/07/15 02:25:00;;;;;;;1.80;1.63;;;21.70;55.30;;;;;;5025750;28;20287;-85
2023/07/15 02:27:26;;;;;;;2.15;1.73;;;21.70;54.70;;;;;;5076005;28;20187;-84
2023/07/15 02:29:56;;;;;;;1.77;1.67;;;21.70;54.60;;;;;;5075704;28;20153;-83
2023/07/15 02:32:40;;;;;;;1.95;1.75;;;21.70;54.70;;;;;;5025303;28;20183;-86
2023/07/15 02:35:08;;;;;;;2.13;1.83;;;21.70;54.70;;;;;;5076159;28;20572;-86
2023/07/15 02:37:35;;;;;;;2.25;2.00;;;21.70;54.70;;;;;;5055340;28;20220;-83
2023/07/15 02:40:04;;;;;;;1.90;1.58;;;21.70;54.70;;;;;;5072349;28;20154;-85
2023/07/15 02:42:33;;;;;;;2.10;1.90;;;21.70;54.70;;;;;;5073404;28;20153;-84
2023/07/15 02:45:06;;;;;;;2.42;2.20;;;21.70;54.70;;;;;;5072238;28;20185;-85
2023/07/15 02:47:32;;;;;;;2.25;2.03;;;21.70;54.70;;;;;;5022340;28;20181;-84
2023/07/15 02:50:00;;;;;;;2.10;1.90;;;21.70;54.80;;;;;;5055641;28;20172;-84
2023/07/15 02:52:26;;;;;;;2.10;1.90;;;21.70;54.80;;;;;;5072177;28;20158;-85
2023/07/15 02:54:55;;;;;;;2.08;1.80;;;21.70;54.80;;;;;;5072166;28;20157;-83
2023/07/15 02:57:21;;;;;;;1.98;1.75;;;21.70;54.80;;;;;;5038200;28;20181;-82
2023/07/15 02:59:49;;;;;;;2.10;1.90;;;21.70;54.80;;;;;;5073449;28;20239;-85
2023/07/15 03:02:20;;;;;;;2.10;1.90;;;21.70;54.80;;;;;;5072027;28;20157;-87
2023/07/15 03:04:47;;;;;;;2.25;1.92;;;21.60;54.70;;;;;;5038433;28;20215;-84
2023/07/15 03:07:13;;;;;;;2.00;1.80;;;21.60;54.70;;;;;;5072099;28;20146;-84
2023/07/15 03:09:39;;;;;;;2.28;1.92;;;21.60;54.80;;;;;;5071899;28;20192;-86
2023/07/15 03:12:06;;;;;;;1.90;1.70;;;21.60;54.80;;;;;;5055188;28;20169;-81
2023/07/15 03:14:32;;;;;;;2.15;1.92;;;21.60;54.80;;;;;;5073245;28;20184;-84
2023/07/15 03:16:58;;;;;;;1.73;1.63;;;21.60;54.80;;;;;;5076200;28;20196;-84
2023/07/15 03:19:24;;;;;;;2.42;2.15;;;21.60;54.80;;;;;;5076218;28;20165;-83
2023/07/15 03:21:50;;;;;;;2.00;1.80;;;21.60;54.80;;;;;;5077152;28;20166;-83
2023/07/15 03:24:16;;;;;;;2.10;1.90;;;21.60;54.80;;;;;;5075984;28;20650;-84
2023/07/15 03:26:42;;;;;;;2.10;1.90;;;21.70;54.90;;;;;;5075743;28;20165;-84
2023/07/15 03:29:09;;;;;;;1.85;1.70;;;21.60;54.90;;;;;;5058979;28;20226;-83
2023/07/15 03:31:35;;;;;;;2.00;1.80;;;21.60;54.90;;;;;;5059459;28;20252;-84
2023/07/15 03:34:02;;;;;;;2.35;1.95;;;21.60;54.80;;;;;;5075615;28;20238;-84
2023/07/15 03:36:28;;;;;;;2.20;2.00;;;21.60;54.90;;;;;;5058997;28;20177;-83
2023/07/15 03:38:54;;;;;;;1.92;1.77;;;21.60;54.80;;;;;;5058672;28;20274;-87
2023/07/15 03:41:20;;;;;;;2.13;1.92;;;21.60;54.80;;;;;;5076668;28;20625;-84
2023/07/15 03:43:45;;;;;;;2.42;1.90;;;21.70;54.80;;;;;;5076653;28;20165;-86
2023/07/15 03:46:12;;;;;;;1.98;1.77;;;21.70;54.80;;;;;;5075479;28;20154;-86
2023/07/15 03:48:39;;;;;;;1.92;1.73;;;21.70;54.70;;;;;;5058918;28;20173;-82
2023/07/15 03:51:06;;;;;;;2.08;1.92;;;21.70;54.60;;;;;;5076771;28;20157;-86
2023/07/15 03:53:32;;;;;;;2.17;1.98;;;21.70;54.70;;;;;;5075381;28;20197;-85
2023/07/15 03:55:58;;;;;;;1.85;1.70;;;21.70;54.70;;;;;;5058744;28;20177;-86
2023/07/15 03:58:24;;;;;;;2.08;1.88;;;21.70;54.70;;;;;;5058595;28;20241;-85
2023/07/15 04:00:50;;;;;;;2.17;1.98;;;21.80;54.60;;;;;;5075133;28;20186;-84
2023/07/15 04:03:16;;;;;;;1.70;1.60;;;21.80;54.70;;;;;;5076429;28;20555;-85
2023/07/15 04:05:42;;;;;;;2.20;1.80;;;21.80;54.50;;;;;;5058225;28;20200;-85
2023/07/15 04:08:08;;;;;;;2.55;1.80;;;21.80;54.50;;;;;;5076267;28;20240;-88
2023/07/15 04:10:34;;;;;;;1.90;1.70;;;21.80;54.50;;;;;;5074956;28;20215;-85
2023/07/15 04:13:00;;;;;;;2.10;1.90;;;21.80;54.60;;;;;;5074920;28;20153;-84
2023/07/15 04:15:26;;;;;;;1.90;1.80;;;21.80;54.50;;;;;;5076432;28;20152;-84
2023/07/15 04:17:51;;;;;;;2.10;1.90;;;21.80;54.40;;;;;;5075984;28;20154;-84
2023/07/15 04:20:17;;;;;;;1.95;1.85;;;21.90;54.40;;;;;;5074722;28;20187;-84
2023/07/15 04:22:44;;;;;;;2.10;1.90;;;21.80;54.40;;;;;;5074927;28;20158;-83
2023/07/15 04:25:11;;;;;;;2.40;1.90;;;21.90;54.50;;;;;;5074207;28;20217;-87
2023/07/15 04:27:38;;;;;;;1.95;1.70;;;21.90;54.40;;;;;;5075156;28;20154;-82
2023/07/15 04:30:05;;;;;;;2.10;1.90;;;21.90;54.30;;;;;;5074836;28;20158;-83
2023/07/15 04:32:31;;;;;;;1.83;1.60;;;21.90;54.40;;;;;;5075999;28;20303;-84
2023/07/15 04:35:02;;;;;;;2.20;2.00;;;21.90;54.30;;;;;;5074603;28;20648;-85
2023/07/15 04:37:28;;;;;;;1.85;1.75;;;22.00;54.20;;;;;;5025874;28;20304;-83
2023/07/15 04:39:54;;;;;;;1.90;1.75;;;21.90;54.20;;;;;;5045117;28;20226;-85
2023/07/15 04:42:20;;;;;;;2.13;1.92;;;22.00;54.20;;;;;;5077815;28;20160;-85
2023/07/15 04:44:46;;;;;;;2.28;2.08;;;21.90;54.20;;;;;;5077716;28;20185;-84
2023/07/15 04:47:12;;;;;;;2.00;1.80;;;22.00;54.20;;;;;;5095820;28;20627;-84
2023/07/15 04:49:38;;;;;;;1.92;1.73;;;22.00;54.20;;;;;;5077787;28;20635;-85
2023/07/15 04:52:04;;;;;;;2.03;1.65;;;22.00;54.10;;;;;;5077509;28;20161;-86
2023/07/15 04:54:30;;;;;;;2.00;1.73;;;22.10;54.20;;;;;;5095581;28;20157;-83
2023/07/15 04:56:56;;;;;;;2.15;1.88;;;22.00;54.20;;;;;;5095818;28;20164;-86
2023/07/15 04:59:22;;;;;;;1.90;1.80;;;22.10;54.10;;;;;;5077432;28;20210;-82
2023/07/15 05:01:48;;;;;;;2.10;1.90;;;22.00;54.20;;;;;;5095382;28;20164;-84
2023/07/15 05:04:15;;;;;;;1.70;1.60;;;22.00;54.20;;;;;;5095333;28;20227;-83
2023/07/15 05:06:41;;;;;;;2.00;1.80;;;22.00;54.20;;;;;;5077325;28;20169;-85
2023/07/15 05:09:08;;;;;;;1.80;1.70;;;22.00;54.20;;;;;;5077238;28;20619;-87
2023/07/15 05:11:37;;;;;;;1.88;1.77;;;22.10;53.90;;;;;;5095318;28;20531;-84
2023/07/15 05:14:04;;;;;;;2.13;1.90;;;22.10;54.10;;;;;;5026772;28;20207;-85
2023/07/15 05:16:30;;;;;;;2.10;1.90;;;22.10;54.20;;;;;;5077289;28;20156;-83
2023/07/15 05:18:56;;;;;;;2.08;1.88;;;22.10;54.10;;;;;;5076975;28;20164;-85
2023/07/15 05:21:26;;;;;;;2.08;1.88;;;22.00;54.10;;;;;;5076935;28;20614;-83
2023/07/15 05:23:52;;;;;;;2.58;2.17;;;22.10;54.20;;;;;;5026533;28;20551;-82
2023/07/15 05:26:18;;;;;;;2.22;2.03;;;22.00;54.10;;;;;;5095096;28;20161;-85
2023/07/15 05:28:44;;;;;;;1.95;1.80;;;22.10;54.00;;;;;;5060467;28;20169;-82
2023/07/15 05:31:10;;;;;;;2.03;1.83;;;22.10;54.00;;;;;;5094875;28;20681;-86
2023/07/15 05:33:36;;;;;;;2.10;1.90;;;22.10;54.00;;;;;;5094932;28;20622;-81
2023/07/15 05:36:02;;;;;;;2.05;1.80;;;22.20;53.90;;;;;;5076623;28;20212;-86
2023/07/15 05:38:28;;;;;;;2.28;2.03;;;22.10;53.90;;;;;;5072646;28;20221;-85
2023/07/15 05:40:54;;;;;;;1.83;1.73;;;22.10;53.90;;;;;;5056711;28;20234;-85
2023/07/15 05:43:20;;;;;;;2.15;1.92;;;22.20;53.80;;;;;;5073234;28;20172;-84
2023/07/15 05:45:46;;;;;;;1.92;1.67;;;22.10;53.80;;;;;;5074237;28;20622;-82
2023/07/15 05:48:12;;;;;;;2.03;1.83;;;22.20;53.80;;;;;;5074288;28;20150;-83
2023/07/15 05:50:38;;;;;;;2.47;2.10;;;22.20;53.80;;;;;;5073026;28;20526;-86
2023/07/15 05:53:05;;;;;;;2.13;1.92;;;22.10;53.80;;;;;;5073185;28;20160;-87
2023/07/15 05:55:33;;;;;;;2.15;1.95;;;22.20;54.00;;;;;;5073017;28;20162;-85
2023/07/15 05:58:00;;;;;;;2.10;1.90;;;22.10;53.90;;;;;;5072830;28;20184;-85
2023/07/15 06:00:26;;;;;;;2.15;1.95;;;22.20;53.90;;;;;;5073300;28;20149;-84
2023/07/15 06:02:52;;;;;;;2.50;2.17;;;22.20;53.80;;;;;;5056119;28;20215;-85
2023/07/15 06:05:18;;;;;;;2.15;1.88;;;22.30;53.80;;;;;;5072901;28;20193;-84
2023/07/15 06:07:44;;;;;;;1.73;1.60;;;22.30;53.70;;;;;;5056117;28;20176;-84
2023/07/15 06:10:10;;;;;;;2.22;2.00;;;22.30;53.70;;;;;;5072818;28;20170;-85
2023/07/15 06:12:36;;;;;;;2.58;1.95;;;22.20;53.80;;;;;;5072718;28;20172;-83
2023/07/15 06:15:02;;;;;;;2.10;1.90;;;22.20;53.80;;;;;;5056074;28;20196;-81
2023/07/15 06:17:28;;;;;;;1.80;1.70;;;22.20;54.00;;;;;;5072504;28;20222;-85
2023/07/15 06:19:54;;;;;;;1.80;1.70;;;22.20;53.90;;;;;;5055860;28;20166;-83
2023/07/15 06:22:19;;;;;;;2.10;1.90;;;22.20;53.90;;;;;;5073639;28;20227;-84
2023/07/15 06:24:46;;;;;;;2.63;2.25;;;22.20;53.90;;;;;;5055670;28;20207;-82
2023/07/15 06:27:12;;;;;;;2.72;2.00;;;22.20;53.80;;;;;;5074181;28;20149;-84
2023/07/15 06:29:38;;;;;;;2.13;1.92;;;22.20;53.80;;;;;;5072367;28;20171;-80
2023/07/15 06:32:04;;;;;;;2.03;1.83;;;22.20;53.80;;;;;;5072418;28;20537;-83
2023/07/15 06:34:31;;;;;;;2.15;1.95;;;22.30;53.70;;;;;;5055721;28;20169;-85
2023/07/15 06:36:57;;;;;;;2.10;1.90;;;22.20;53.90;;;;;;5072301;28;20184;-84
2023/07/15 06:39:23;;;;;;;2.17;1.98;;;22.10;54.60;;;;;;5055465;28;20274;-83
2023/07/15 06:41:50;;;;;;;2.30;2.10;;;22.00;54.30;;;;;;5072207;28;20545;-81
2023/07/15 06:44:16;;;;;;;2.20;2.00;;;22.00;54.60;;;;;;5072029;28;20201;-81
2023/07/15 06:46:42;;;;;;;1.88;1.70;;;21.90;54.80;;;;;;5072232;28;20631;-83
2023/07/15 06:49:08;;;;;;;2.20;1.73;;;22.00;55.00;;;;;;5054617;28;20164;-87
2023/07/15 06:51:34;;;;;;;1.77;1.67;;;21.90;55.90;;;;;;5073321;28;20154;-82
2023/07/15 06:54:01;;;;;;;1.95;1.75;;;21.90;55.30;;;;;;5073527;28;20161;-86
2023/07/15 06:56:28;;;;;;;2.13;1.92;;;21.90;55.40;;;;;;5072121;28;20156;-83
2023/07/15 06:58:54;;;;;;;1.90;1.80;;;22.00;55.30;;;;;;5073250;28;20172;-85
2023/07/15 07:01:20;;;;;;;2.00;1.80;;;22.00;55.20;;;;;;5055119;28;20165;-87
2023/07/15 07:03:46;;;;;;;1.98;1.77;;;22.00;55.20;;;;;;5073171;28;20158;-86
2023/07/15 07:06:12;;;;;;;1.70;1.60;;;22.10;55.30;;;;;;5072512;28;20173;-86
2023/07/15 07:08:38;;;;;;;1.67;1.58;;;22.00;55.50;;;;;;5073406;28;20185;-85
2023/07/15 07:11:04;;;;;;;2.00;1.80;;;22.00;55.40;;;;;;5073106;28;20181;-81
2023/07/15 07:13:30;;;;;;;2.03;1.83;;;21.90;55.60;;;;;;5072185;28;20678;-87
2023/07/15 07:15:57;;;;;;;1.70;1.60;;;22.00;55.70;;;;;;5073033;28;20164;-84
2023/07/15 07:18:23;;;;;;;1.80;1.70;;;22.00;55.60;;;;;;5055156;28;20555;-82
2023/07/15 07:20:54;;;;;;;1.80;1.70;;;21.90;55.50;;;;;;5071789;28;20615;-81
2023/07/15 07:23:20;;;;;;;1.92;1.80;;;21.90;55.70;;;;;;5072066;28;20177;-85
2023/07/15 07:25:46;;;;;;;1.83;1.67;;;21.90;55.90;;;;;;5055487;28;20197;-84
2023/07/15 07:28:12;;;;;;;2.15;1.95;;;21.90;55.90;;;;;;5055573;28;20247;-82
2023/07/15 07:30:40;;;;;;;1.92;1.83;;;21.90;55.70;;;;;;5072847;28;20158;-86
2023/07/15 07:33:06;;;;;;;1.98;1.70;;;22.00;55.90;;;;;;5071956;28;20253;-85
2023/07/15 07:35:32;;;;;;;2.10;1.90;;;22.00;55.90;;;;;;5054799;28;20244;-84
2023/07/15 07:37:58;;;;;;;1.60;1.50;;;22.00;55.70;;;;;;5071612;28;20228;-82
2023/07/15 07:40:24;;;;;;;1.88;1.73;;;21.90;55.80;;;;;;5071447;28;20177;-85
2023/07/15 07:42:50;;;;;;;2.03;1.85;;;22.00;55.90;;;;;;5071524;28;20209;-84
2023/07/15 07:45:16;;;;;;;2.10;1.90;;;22.10;55.80;;;;;;5072711;28;20275;-83
2023/07/15 07:47:42;;;;;;;1.92;1.75;;;22.00;55.70;;;;;;5071455;28;20181;-84
2023/07/15 07:50:08;;;;;;;2.10;1.90;;;22.00;55.80;;;;;;5054764;28;20242;-83
2023/07/15 07:52:34;;;;;;;1.88;1.77;;;22.10;55.70;;;;;;5054833;28;20169;-85
2023/07/15 07:55:01;;;;;;;1.95;1.80;;;22.00;55.80;;;;;;5071858;28;20561;-84
2023/07/15 07:57:27;;;;;;;2.05;1.85;;;22.00;55.90;;;;;;5071511;28;20582;-85
2023/07/15 07:59:53;;;;;;;2.03;1.70;;;22.00;55.70;;;;;;5073647;28;20189;-84
2023/07/15 08:02:19;;;;;;;2.33;1.95;;;22.00;55.80;;;;;;5076552;28;20450;-85
2023/07/15 08:04:49;;;;;;;2.13;1.90;;;22.10;55.70;;;;;;5076528;28;20181;-87
2023/07/15 08:07:15;;;;;;;1.80;1.70;;;22.00;55.70;;;;;;5026761;28;20656;-85
2023/07/15 08:09:41;;;;;;;1.90;1.65;;;22.10;55.70;;;;;;5078183;28;20158;-83
2023/07/15 08:12:08;;;;;;;2.10;1.90;;;22.10;55.70;;;;;;5076982;28;20164;-85
2023/07/15 08:14:38;;;;;;;2.00;1.80;;;22.10;55.70;;;;;;5077392;28;20153;-84
2023/07/15 08:17:04;;;;;;;1.80;1.55;;;22.10;55.70;;;;;;5043310;28;20185;-86
2023/07/15 08:19:30;;;;;;;1.80;1.70;;;22.10;55.70;;;;;;5078072;28;20624;-82
2023/07/15 08:21:56;;;;;;;1.67;1.58;;;22.10;55.70;;;;;;5077562;28;20162;-86
2023/07/15 08:24:22;;;;;;;1.90;1.75;;;22.10;55.70;;;;;;5077278;28;20662;-86
2023/07/15 08:26:47;;;;;;;1.70;1.60;;;22.20;55.50;;;;;;5076402;28;20168;-84
2023/07/15 08:29:13;;;;;;;2.10;1.90;;;22.20;55.50;;;;;;5077011;28;20188;-86
2023/07/15 08:31:39;;;;;;;2.20;2.00;;;22.20;55.50;;;;;;5075822;28;20161;-82
2023/07/15 08:34:05;;;;;;;1.77;1.67;;;22.10;55.60;;;;;;5075706;28;20162;-87
2023/07/15 08:36:31;;;;;;;2.40;1.70;;;22.10;55.50;;;;;;5058227;28;20166;-85
2023/07/15 08:39:02;;;;;;;2.33;1.77;;;22.00;55.40;;;;;;5089545;28;20273;-83
2023/07/15 08:41:28;;;;;;;1.73;1.63;;;22.10;55.30;;;;;;5027732;28;20201;-85
2023/07/15 08:43:53;;;;;;;1.80;1.70;;;22.10;55.20;;;;;;5077974;28;20157;-83
2023/07/15 08:46:26;;;;;;;2.17;1.90;;;22.10;55.30;;;;;;5061131;28;20171;-85
2023/07/15 08:48:57;;;;;;;1.70;1.60;;;22.10;55.30;;;;;;5095874;28;20148;-84
2023/07/15 08:51:26;;;;;;;1.83;1.73;;;22.10;55.10;;;;;;5044365;28;20190;-83
2023/07/15 08:53:52;;;;;;;1.98;1.77;;;22.10;55.00;;;;;;5096168;28;20157;-85
2023/07/15 08:56:18;;;;;;;1.90;1.80;;;22.10;55.30;;;;;;5077620;28;20156;-85
2023/07/15 08:58:44;;;;;;;2.05;1.80;;;22.00;55.10;;;;;;5077497;28;20649;-85
2023/07/15 09:01:10;;;;;;;2.10;1.90;;;22.00;55.20;;;;;;5077663;28;20168;-87
2023/07/15 09:03:36;;;;;;;1.75;1.52;;;22.10;55.20;;;;;;5077702;28;20673;-85
2023/07/15 09:06:02;;;;;;;1.73;1.63;;;22.10;54.90;;;;;;5095474;28;20184;-84
2023/07/15 09:08:28;;;;;;;1.83;1.73;;;22.20;54.80;;;;;;5077216;28;20200;-83
2023/07/15 09:10:55;;;;;;;1.77;1.63;;;22.10;54.90;;;;;;5077812;28;20557;-83
2023/07/15 09:13:28;;;;;;;1.60;1.50;;;22.20;54.80;;;;;;5059676;28;20165;-83
2023/07/15 09:15:54;;;;;;;1.70;1.60;;;22.10;55.00;;;;;;5095436;28;20172;-84
2023/07/15 09:18:21;;;;;;;1.77;1.67;;;22.10;54.90;;;;;;5061082;28;20208;-85
2023/07/15 09:20:47;;;;;;;1.83;1.65;;;22.10;55.00;;;;;;5095356;28;20160;-85
2023/07/15 09:23:13;;;;;;;1.65;1.50;;;22.10;54.80;;;;;;5077061;28;20202;-85
2023/07/15 09:25:39;;;;;;;1.80;1.70;;;22.10;54.90;;;;;;5076945;28;20559;-84
2023/07/15 09:28:11;;;;;;;1.55;1.45;;;22.10;54.80;;;;;;5077158;28;20157;-86
2023/07/15 09:30:39;;;;;;;1.70;1.60;;;22.10;54.70;;;;;;5043157;28;20193;-85
2023/07/15 09:33:06;;;;;;;1.58;1.48;;;22.10;54.70;;;;;;5077222;28;20215;-83
2023/07/15 09:35:36;;;;;;;2.35;2.03;;;22.20;54.30;;;;;;5076805;28;20153;-84
2023/07/15 09:38:03;;;;;;;1.75;1.65;;;22.20;54.20;;;;;;5076751;28;20255;-85
2023/07/15 09:40:40;;;;;;;1.73;1.63;;;22.20;54.20;;;;;;5077019;28;20149;-83
2023/07/15 09:43:06;;;;;;;1.75;1.65;;;22.20;54.30;;;;;;5094963;28;20161;-83
2023/07/15 09:45:35;;;;;;;1.65;1.55;;;22.20;54.40;;;;;;5059691;28;20196;-86
2023/07/15 09:48:04;;;;;;;2.08;1.88;;;22.10;54.30;;;;;;5094759;28;20149;-87
2023/07/15 09:50:32;;;;;;;1.80;1.70;;;22.10;54.50;;;;;;5076521;28;20149;-84
2023/07/15 09:52:59;;;;;;;1.70;1.60;;;22.10;54.50;;;;;;5076637;28;20164;-81
2023/07/15 09:55:25;;;;;;;1.80;1.70;;;22.20;54.20;;;;;;5059764;28;20165;-82
2023/07/15 09:57:56;;;;;;;1.85;1.75;;;22.10;54.20;;;;;;5076361;28;20184;-86
2023/07/15 10:00:23;;;;;;;1.75;1.65;;;22.10;54.30;;;;;;5076538;28;20161;-84
2023/07/15 10:02:51;;;;;;;1.58;1.48;;;22.10;54.30;;;;;;5076779;28;20191;-85
2023/07/15 10:05:17;;;;;;;1.45;1.35;;;22.10;54.20;;;;;;5059303;28;20576;-83
2023/07/15 10:07:43;;;;;;;2.10;1.77;;;22.10;54.00;;;;;;5076346;28;20183;-87
2023/07/15 10:10:09;;;;;;;1.60;1.50;;;22.10;54.10;;;;;;5094146;28;20282;-82
2023/07/15 10:12:35;;;;;;;1.95;1.80;;;22.10;53.90;;;;;;5076114;28;20236;-85
2023/07/15 10:15:02;;;;;;;1.63;1.52;;;22.10;54.00;;;;;;5076214;28;20210;-82
2023/07/15 10:17:40;;;;;;;1.42;1.33;;;22.20;54.00;;;;;;5076015;28;20619;-82
2023/07/15 10:20:10;;;;;;;1.73;1.63;;;22.20;53.50;;;;;;5075862;28;20156;-83
2023/07/15 10:22:36;;;;;;;1.85;1.67;;;22.30;53.40;;;;;;5094332;28;20149;-83
2023/07/15 10:25:03;;;;;;;1.85;1.73;;;22.30;53.40;;;;;;5059391;28;20188;-83
2023/07/15 10:27:30;;;;;;;1.88;1.77;;;22.30;53.00;;;;;;5093975;28;20159;-85
2023/07/15 10:30:17;;;;;;;1.70;1.60;;;22.30;53.30;;;;;;5093964;28;20669;-85
2023/07/15 10:33:09;;;;;;;1.30;1.20;;;22.30;53.00;;;;;;5075968;28;20630;-81
2023/07/15 10:35:46;;;;;;;1.88;1.50;;;22.20;53.10;;;;;;5093751;28;20153;-82
2023/07/15 10:38:29;;;;;;;1.50;1.40;;;22.20;53.20;;;;;;5071903;28;20266;-85
2023/07/15 10:41:03;;;;;;;1.60;1.50;;;22.20;53.30;;;;;;5055581;28;20173;-87
2023/07/15 10:43:38;;;;;;;1.52;1.42;;;22.10;52.90;;;;;;5073677;28;20179;-84
2023/07/15 10:46:07;;;;;;;2.40;1.60;;;22.10;53.20;;;;;;5072457;28;20268;-85
2023/07/15 10:48:33;;;;;;;1.60;1.48;;;22.10;53.10;;;;;;5072537;28;20180;-82
2023/07/15 10:51:00;;;;;;;1.60;1.50;;;22.10;53.20;;;;;;5072688;28;20189;-84
2023/07/15 10:53:27;;;;;;;1.35;1.25;;;22.20;53.10;;;;;;5055657;28;20546;-83
2023/07/15 10:55:56;;;;;;;2.00;1.80;;;22.20;52.90;;;;;;5073243;28;20604;-86
2023/07/15 10:58:22;;;;;;;1.60;1.50;;;22.20;52.80;;;;;;5073544;28;20162;-85
2023/07/15 11:00:48;;;;;;;1.80;1.70;;;22.20;52.70;;;;;;5073461;28;20625;-84
2023/07/15 11:03:14;;;;;;;1.70;1.60;;;22.10;52.90;;;;;;5055496;28;20165;-85
2023/07/15 11:05:42;;;;;;;1.80;1.70;;;22.20;52.90;;;;;;5055373;28;20196;-84
2023/07/15 11:08:09;;;;;;;1.70;1.60;;;22.10;53.00;;;;;;5055800;28;20617;-83
2023/07/15 11:10:35;;;;;;;1.63;1.52;;;22.20;52.70;;;;;;5072279;28;20149;-87
2023/07/15 11:13:17;;;;;;;1.42;1.33;;;22.30;52.50;;;;;;5073377;28;20168;-85
2023/07/15 11:15:44;;;;;;;1.50;1.35;;;22.20;52.60;;;;;;5072278;28;20236;-83
2023/07/15 11:18:22;;;;;;;1.52;1.42;;;22.20;52.50;;;;;;5055584;28;20583;-84
2023/07/15 11:20:50;;;;;;;1.60;1.50;;;22.20;52.50;;;;;;5038869;28;20691;-84
2023/07/15 11:23:16;;;;;;;1.88;1.77;;;22.30;52.20;;;;;;5072118;28;20203;-85
2023/07/15 11:25:42;;;;;;;1.67;1.58;;;22.30;52.30;;;;;;5055639;28;20193;-86
2023/07/15 11:28:09;;;;;;;1.60;1.50;;;22.20;52.10;;;;;;5073313;28;20563;-87
2023/07/15 11:30:38;;;;;;;1.65;1.55;;;22.30;52.20;;;;;;5072408;28;20165;-85
2023/07/15 11:33:04;;;;;;;2.03;1.90;;;22.30;52.30;;;;;;5072737;28;20160;-86
2023/07/15 11:35:33;;;;;;;1.77;1.67;;;22.10;52.40;;;;;;5074593;28;20154;-84
2023/07/15 11:38:10;;;;;;;1.60;1.50;;;22.20;52.30;;;;;;5078924;28;20529;-87
2023/07/15 11:40:37;;;;;;;1.90;1.80;;;22.20;52.20;;;;;;5064739;28;20172;-84
2023/07/15 11:43:06;;;;;;;1.85;1.63;;;22.30;52.10;;;;;;5096957;28;20619;-87
2023/07/15 11:45:32;;;;;;;1.50;1.40;;;22.20;52.10;;;;;;5096962;28;20196;-87
2023/07/15 11:47:59;;;;;;;1.63;1.50;;;22.30;52.10;;;;;;5079159;28;20165;-85
2023/07/15 11:50:26;;;;;;;2.45;1.63;;;22.30;51.80;;;;;;5096850;28;20164;-88
2023/07/15 11:52:54;;;;;;;1.80;1.70;;;22.30;51.80;;;;;;5079102;28;20163;-86
2023/07/15 11:55:24;;;;;;;1.40;1.30;;;22.30;51.60;;;;;;5079210;28;20157;-83
2023/07/15 11:57:51;;;;;;;1.67;1.40;;;22.30;51.60;;;;;;5062215;28;20584;-82
2023/07/15 12:00:27;;;;;;;1.52;1.42;;;22.30;51.40;;;;;;5078733;28;20145;-84
2023/07/15 12:02:53;;;;;;;1.40;1.30;;;22.30;51.50;;;;;;5078414;28;20526;-83
2023/07/15 12:05:19;;;;;;;1.80;1.70;;;22.40;51.30;;;;;;5078587;28;20685;-87
2023/07/15 12:07:49;;;;;;;1.40;1.30;;;22.30;51.50;;;;;;5096562;28;20654;-82
2023/07/15 12:10:16;;;;;;;1.55;1.45;;;22.30;51.50;;;;;;5079002;28;20222;-85
2023/07/15 12:12:45;;;;;;;1.50;1.40;;;22.20;51.60;;;;;;5078382;28;20157;-87
2023/07/15 12:15:14;;;;;;;1.48;1.38;;;22.30;51.20;;;;;;5061938;28;20168;-82
2023/07/15 12:17:40;;;;;;;1.60;1.50;;;22.30;51.20;;;;;;5061494;28;20169;-85
2023/07/15 12:20:07;;;;;;;1.60;1.33;;;22.30;51.40;;;;;;5078247;28;20183;-84
2023/07/15 12:22:34;;;;;;;1.33;1.23;;;22.30;51.20;;;;;;5078161;28;20192;-86
2023/07/15 12:25:00;;;;;;;1.80;1.70;;;22.30;51.00;;;;;;5078123;28;20180;-86
2023/07/15 12:27:26;;;;;;;1.50;1.40;;;22.30;50.90;;;;;;5061580;28;20169;-86
2023/07/15 12:29:52;;;;;;;1.50;1.40;;;22.30;50.80;;;;;;5061249;28;20219;-83
2023/07/15 12:32:17;;;;;;;1.30;1.20;;;22.40;50.90;;;;;;5077789;28;20638;-84
2023/07/15 12:34:43;;;;;;;1.60;1.50;;;22.40;50.70;;;;;;5096263;28;20508;-81
2023/07/15 12:37:09;;;;;;;1.60;1.50;;;22.40;50.80;;;;;;5061152;28;20173;-85
2023/07/15 12:39:35;;;;;;;1.60;1.50;;;22.40;50.80;;;;;;5074328;28;20692;-86
2023/07/15 12:42:01;;;;;;;1.60;1.50;;;22.30;50.80;;;;;;5057725;28;20169;-85
2023/07/15 12:44:27;;;;;;;1.60;1.50;;;22.40;50.80;;;;;;5074344;28;20297;-84
2023/07/15 12:46:53;;;;;;;1.50;1.40;;;22.30;50.70;;;;;;5073105;28;20173;-84
2023/07/15 12:49:19;;;;;;;2.10;1.70;;;22.30;50.80;;;;;;5075452;28;20519;-83